createdAt,value
2022-09-13T05:04:03.137Z,4.35
2022-09-13T05:15:57.792Z,4.22
2022-09-13T06:18:35.995Z,3.80
2022-09-13T06:23:43.586Z,3.60
2022-09-13T06:28:51.197Z,2.88
2022-09-13T06:34:03.641Z,2.70
2022-09-13T06:39:09.682Z,3.80
2022-09-13T06:44:14.800Z,2.17
2022-09-13T06:52:05.680Z,2.40
2022-09-13T07:17:49.825Z,1.77
2022-09-13T07:22:54.952Z,2.47
2022-09-13T07:28:05.044Z,2.10
2022-09-13T07:33:19.920Z,1.63
2022-09-13T07:44:34.059Z,1.90
2022-09-13T07:50:01.943Z,1.40
2022-09-13T07:55:17.759Z,1.23
2022-09-13T08:07:18.625Z,1.08
2022-09-13T08:12:36.404Z,1.13
2022-09-13T08:17:44.825Z,1.13
2022-09-13T08:23:05.652Z,1.95
2022-09-13T08:28:22.369Z,0.90
2022-09-13T08:40:53.939Z,2.03
2022-09-13T08:48:11.555Z,1.95
2022-09-13T08:52:40.150Z,0.70
2022-09-13T08:58:22.989Z,0.68
2022-09-13T09:04:14.475Z,1.30
2022-09-13T09:09:39.640Z,1.15
2022-09-13T09:14:50.340Z,0.73
2022-09-13T09:20:17.160Z,1.23
2022-09-13T09:25:32.185Z,0.90
2022-09-13T09:31:23.571Z,1.58
2022-09-13T09:42:57.978Z,0.85
2022-09-13T10:18:54.740Z,1.00
2022-09-13T10:24:35.745Z,0.45
2022-09-13T10:30:06.726Z,0.60
2022-09-13T10:41:47.117Z,1.15
2022-09-13T10:47:02.556Z,0.75
2022-09-13T10:52:47.876Z,0.32
2022-09-13T10:57:57.463Z,0.77
2022-09-13T11:37:09.386Z,0.80
2022-09-13T11:42:45.428Z,0.55
2022-09-13T11:48:07.901Z,0.70
2022-09-13T11:53:34.243Z,0.43
2022-09-13T11:58:52.613Z,0.47
2022-09-13T12:04:18.157Z,1.15
2022-09-13T12:09:40.073Z,0.45
2022-09-13T12:15:01.460Z,0.90
2022-09-13T12:20:12.200Z,0.55
2022-09-13T12:25:31.489Z,0.47
2022-09-13T12:30:43.329Z,0.70
2022-09-13T12:35:58.536Z,0.50
2022-09-13T12:41:01.016Z,0.52
2022-09-13T12:46:37.400Z,0.68
2022-09-13T12:51:59.702Z,0.80
2022-09-13T12:57:44.542Z,0.50
2022-09-13T13:03:24.739Z,0.50
2022-09-13T13:08:33.090Z,0.47
2022-09-13T13:13:40.173Z,0.70
2022-09-13T13:18:52.278Z,0.43
2022-09-13T13:24:27.173Z,0.35
2022-09-13T13:29:35.804Z,0.43
2022-09-13T13:34:47.014Z,0.70
2022-09-13T13:39:52.829Z,0.93
2022-09-13T13:45:16.859Z,0.45
2022-09-13T13:50:22.497Z,0.55
2022-09-13T13:55:50.424Z,0.65
2022-09-13T14:00:58.895Z,0.75
2022-09-13T14:06:10.241Z,0.55
2022-09-13T14:11:25.374Z,0.80
2022-09-13T14:16:44.308Z,1.42
2022-09-13T14:26:55.430Z,0.65
2022-09-13T14:32:10.905Z,0.55
2022-09-13T14:37:22.036Z,0.80
2022-09-13T14:42:27.157Z,0.55
2022-09-13T14:47:36.454Z,1.00
2022-09-13T14:52:47.870Z,0.57
2022-09-13T14:57:55.556Z,0.65
2022-09-13T15:03:06.882Z,0.63
2022-09-13T15:08:29.598Z,1.10
2022-09-13T15:13:34.772Z,0.77
2022-09-13T15:18:42.358Z,0.65
2022-09-13T15:23:53.372Z,0.75
2022-09-13T15:29:02.421Z,0.55
2022-09-13T15:34:26.284Z,0.77
2022-09-13T15:39:32.104Z,0.82
2022-09-13T15:44:41.955Z,0.52
2022-09-13T15:49:54.240Z,0.70
2022-09-13T15:54:59.247Z,0.70
2022-09-13T16:00:06.793Z,1.05
2022-09-13T16:05:15.161Z,0.88
2022-09-13T16:10:22.470Z,1.13
2022-09-13T16:15:28.489Z,1.02
2022-09-13T16:20:36.287Z,1.23
2022-09-13T16:25:41.509Z,1.70
2022-09-13T16:30:46.851Z,1.95
2022-09-13T16:35:55.641Z,0.60
2022-09-13T16:41:02.040Z,1.20
2022-09-13T16:46:10.047Z,0.80
2022-09-13T16:51:17.689Z,0.90
2022-09-13T16:56:24.227Z,0.60
2022-09-13T17:01:31.336Z,0.82
2022-09-13T17:06:39.034Z,1.02
2022-09-13T17:11:46.042Z,1.17
2022-09-13T17:16:55.007Z,1.52
2022-09-13T17:22:03.690Z,1.23
2022-09-13T17:27:09.230Z,1.35
2022-09-13T17:32:14.232Z,1.73
2022-09-13T17:37:21.845Z,1.73
2022-09-13T17:42:26.827Z,4.80
2022-09-13T17:47:33.987Z,5.53
2022-09-13T17:52:41.781Z,3.85
2022-09-13T17:57:51.834Z,4.00
2022-09-13T18:03:06.147Z,3.40
2022-09-13T18:08:14.036Z,2.78
2022-09-13T18:13:19.136Z,2.42
2022-09-13T18:18:24.441Z,2.05
2022-09-13T18:23:32.750Z,1.48
2022-09-13T18:28:38.323Z,2.05
2022-09-13T18:33:50.303Z,2.08
2022-09-13T18:38:59.579Z,2.35
2022-09-13T18:44:05.157Z,3.22
2022-09-13T18:49:08.027Z,2.63
2022-09-13T18:54:18.112Z,2.22
2022-09-13T18:59:23.240Z,1.95
2022-09-13T19:04:28.403Z,1.73
2022-09-13T19:09:36.228Z,1.20
2022-09-13T19:14:41.313Z,1.27
2022-09-13T19:19:47.243Z,1.45
2022-09-13T19:24:55.208Z,1.65
2022-09-13T19:30:00.234Z,1.00
2022-09-13T19:35:05.352Z,1.33
2022-09-13T19:40:14.134Z,1.70
2022-09-13T19:45:20.031Z,1.30
2022-09-13T19:50:25.045Z,1.65
2022-09-13T19:55:33.557Z,1.38
2022-09-13T20:00:38.783Z,1.70
2022-09-13T20:05:43.817Z,1.58
2022-09-13T20:10:51.448Z,1.35
2022-09-13T20:15:56.508Z,1.85
2022-09-13T20:21:05.884Z,1.30
2022-09-13T20:26:20.282Z,1.15
2022-09-13T20:31:25.563Z,1.60
2022-09-13T20:36:32.168Z,1.77
2022-09-13T20:41:39.922Z,1.60
2022-09-13T20:46:45.006Z,1.75
2022-09-13T20:51:50.229Z,1.33
2022-09-13T20:56:58.368Z,1.92
2022-09-13T21:02:03.427Z,2.25
2022-09-13T21:07:20.959Z,2.22
2022-09-13T21:12:28.585Z,2.83
2022-09-13T21:17:33.572Z,2.83
2022-09-13T21:22:39.627Z,2.92
2022-09-13T21:27:47.845Z,2.50
2022-09-13T21:32:53.008Z,2.63
2022-09-13T21:37:58.268Z,3.25
2022-09-13T21:43:05.907Z,3.80
2022-09-13T21:48:10.911Z,4.10
2022-09-13T21:53:15.874Z,4.78
2022-09-13T21:58:23.452Z,6.25
2022-09-13T22:03:28.361Z,7.00
2022-09-13T22:08:34.964Z,4.70
2022-09-13T22:13:45.722Z,4.18
2022-09-13T22:18:51.605Z,3.75
2022-09-13T22:23:57.013Z,3.45
2022-09-13T22:29:04.693Z,3.40
2022-09-13T22:34:10.604Z,3.17
2022-09-13T22:39:17.642Z,2.95
2022-09-13T22:44:25.260Z,2.50
2022-09-13T22:49:30.255Z,3.00
2022-09-13T22:54:35.349Z,2.67
2022-09-13T22:59:42.899Z,2.67
2022-09-13T23:04:47.916Z,3.08
2022-09-13T23:09:52.944Z,3.15
2022-09-13T23:15:00.573Z,2.72
2022-09-13T23:20:06.222Z,2.40
2022-09-13T23:25:11.847Z,2.33
2022-09-13T23:30:19.991Z,2.03
2022-09-13T23:35:25.094Z,2.25
2022-09-13T23:40:30.393Z,1.90
2022-09-13T23:45:38.139Z,2.70
2022-09-13T23:50:43.410Z,2.78
2022-09-13T23:55:48.406Z,2.22
